sensor_id;sensor_type;location;lat;lon;timestamp;P1;durP1;ratioP1;P2;durP2;ratioP2
7291;SDS011;3687;47.648;8.204;2022-07-29T00:00:39;3.30;;;3.00;;
7291;SDS011;3687;47.648;8.204;2022-07-29T00:03:04;2.77;;;2.50;;
7291;SDS011;3687;47.648;8.204;2022-07-29T00:05:30;2.97;;;2.73;;
7291;SDS011;3687;47.648;8.204;2022-07-29T00:07:56;3.13;;;2.90;;
7291;SDS011;3687;47.648;8.204;2022-07-29T00:10:21;3.07;;;2.60;;
7291;SDS011;3687;47.648;8.204;2022-07-29T00:12:47;3.70;;;3.10;;
7291;SDS011;3687;47.648;8.204;2022-07-29T00:15:12;3.10;;;2.70;;
7291;SDS011;3687;47.648;8.204;2022-07-29T00:17:38;3.07;;;2.77;;
7291;SDS011;3687;47.648;8.204;2022-07-29T00:20:04;4.30;;;3.07;;
7291;SDS011;3687;47.648;8.204;2022-07-29T00:22:30;4.30;;;2.60;;
7291;SDS011;3687;47.648;8.204;2022-07-29T00:24:56;3.80;;;2.77;;
7291;SDS011;3687;47.648;8.204;2022-07-29T00:27:21;2.93;;;2.63;;
7291;SDS011;3687;47.648;8.204;2022-07-29T00:29:47;3.50;;;2.93;;
7291;SDS011;3687;47.648;8.204;2022-07-29T00:32:13;5.17;;;2.90;;
7291;SDS011;3687;47.648;8.204;2022-07-29T00:34:39;2.90;;;2.70;;
7291;SDS011;3687;47.648;8.204;2022-07-29T00:37:23;3.27;;;2.97;;
7291;SDS011;3687;47.648;8.204;2022-07-29T00:39:48;4.57;;;2.97;;
7291;SDS011;3687;47.648;8.204;2022-07-29T00:42:14;3.57;;;2.70;;
7291;SDS011;3687;47.648;8.204;2022-07-29T00:44:41;2.83;;;2.53;;
7291;SDS011;3687;47.648;8.204;2022-07-29T00:47:07;6.33;;;2.90;;
7291;SDS011;3687;47.648;8.204;2022-07-29T00:49:36;2.83;;;2.60;;
7291;SDS011;3687;47.648;8.204;2022-07-29T00:52:04;4.63;;;2.60;;
7291;SDS011;3687;47.648;8.204;2022-07-29T00:54:32;4.30;;;2.57;;
7291;SDS011;3687;47.648;8.204;2022-07-29T00:56:58;3.00;;;2.70;;
7291;SDS011;3687;47.648;8.204;2022-07-29T00:59:25;3.20;;;2.57;;
7291;SDS011;3687;47.648;8.204;2022-07-29T01:01:52;3.10;;;2.80;;
7291;SDS011;3687;47.648;8.204;2022-07-29T01:04:18;3.20;;;3.00;;
7291;SDS011;3687;47.648;8.204;2022-07-29T01:06:44;3.47;;;3.00;;
7291;SDS011;3687;47.648;8.204;2022-07-29T01:09:10;3.67;;;2.77;;
7291;SDS011;3687;47.648;8.204;2022-07-29T01:11:36;4.63;;;2.90;;
7291;SDS011;3687;47.648;8.204;2022-07-29T01:14:02;3.53;;;2.83;;
7291;SDS011;3687;47.648;8.204;2022-07-29T01:16:34;4.30;;;2.70;;
7291;SDS011;3687;47.648;8.204;2022-07-29T01:19:23;3.77;;;2.80;;
7291;SDS011;3687;47.648;8.204;2022-07-29T01:21:57;4.70;;;3.03;;
7291;SDS011;3687;47.648;8.204;2022-07-29T01:28:00;4.33;;;2.80;;
7291;SDS011;3687;47.648;8.204;2022-07-29T01:30:04;3.17;;;2.77;;
7291;SDS011;3687;47.648;8.204;2022-07-29T01:32:35;3.20;;;2.70;;
7291;SDS011;3687;47.648;8.204;2022-07-29T01:35:03;3.57;;;2.77;;
7291;SDS011;3687;47.648;8.204;2022-07-29T01:40:40;3.93;;;2.93;;
7291;SDS011;3687;47.648;8.204;2022-07-29T01:44:11;3.10;;;2.80;;
7291;SDS011;3687;47.648;8.204;2022-07-29T01:46:19;3.33;;;2.90;;
7291;SDS011;3687;47.648;8.204;2022-07-29T01:49:08;2.97;;;2.77;;
7291;SDS011;3687;47.648;8.204;2022-07-29T01:54:14;3.43;;;3.17;;
7291;SDS011;3687;47.648;8.204;2022-07-29T01:56:45;3.13;;;2.83;;
7291;SDS011;3687;47.648;8.204;2022-07-29T01:59:14;3.30;;;3.03;;
7291;SDS011;3687;47.648;8.204;2022-07-29T02:01:42;3.13;;;2.80;;
7291;SDS011;3687;47.648;8.204;2022-07-29T02:04:10;4.57;;;3.40;;
7291;SDS011;3687;47.648;8.204;2022-07-29T02:06:37;3.87;;;3.00;;
7291;SDS011;3687;47.648;8.204;2022-07-29T02:09:05;3.27;;;3.07;;
7291;SDS011;3687;47.648;8.204;2022-07-29T02:11:33;3.10;;;2.80;;
7291;SDS011;3687;47.648;8.204;2022-07-29T02:14:00;3.90;;;2.70;;
7291;SDS011;3687;47.648;8.204;2022-07-29T02:16:29;4.40;;;3.00;;
7291;SDS011;3687;47.648;8.204;2022-07-29T02:18:57;3.40;;;3.10;;
7291;SDS011;3687;47.648;8.204;2022-07-29T02:21:25;3.77;;;2.50;;
7291;SDS011;3687;47.648;8.204;2022-07-29T02:23:53;3.43;;;3.13;;
7291;SDS011;3687;47.648;8.204;2022-07-29T02:26:21;3.90;;;2.80;;
7291;SDS011;3687;47.648;8.204;2022-07-29T02:28:49;3.03;;;2.63;;
7291;SDS011;3687;47.648;8.204;2022-07-29T02:31:19;3.50;;;3.20;;
7291;SDS011;3687;47.648;8.204;2022-07-29T02:33:49;3.37;;;2.60;;
7291;SDS011;3687;47.648;8.204;2022-07-29T02:36:16;2.90;;;2.70;;
7291;SDS011;3687;47.648;8.204;2022-07-29T02:38:43;3.90;;;2.57;;
7291;SDS011;3687;47.648;8.204;2022-07-29T02:41:23;4.30;;;2.97;;
7291;SDS011;3687;47.648;8.204;2022-07-29T02:43:54;4.10;;;3.10;;
7291;SDS011;3687;47.648;8.204;2022-07-29T02:46:28;4.53;;;3.30;;
7291;SDS011;3687;47.648;8.204;2022-07-29T02:49:09;3.13;;;2.67;;
7291;SDS011;3687;47.648;8.204;2022-07-29T02:51:41;2.70;;;2.50;;
7291;SDS011;3687;47.648;8.204;2022-07-29T02:54:10;3.10;;;2.70;;
7291;SDS011;3687;47.648;8.204;2022-07-29T02:56:43;2.87;;;2.50;;
7291;SDS011;3687;47.648;8.204;2022-07-29T02:59:11;2.80;;;2.53;;
7291;SDS011;3687;47.648;8.204;2022-07-29T03:01:39;2.87;;;2.50;;
7291;SDS011;3687;47.648;8.204;2022-07-29T03:04:07;3.27;;;2.97;;
7291;SDS011;3687;47.648;8.204;2022-07-29T03:06:34;3.10;;;2.90;;
7291;SDS011;3687;47.648;8.204;2022-07-29T03:09:02;3.13;;;2.93;;
7291;SDS011;3687;47.648;8.204;2022-07-29T03:11:28;5.90;;;3.00;;
7291;SDS011;3687;47.648;8.204;2022-07-29T03:13:55;3.00;;;2.73;;
7291;SDS011;3687;47.648;8.204;2022-07-29T03:16:21;3.30;;;2.70;;
7291;SDS011;3687;47.648;8.204;2022-07-29T03:18:48;2.93;;;2.70;;
7291;SDS011;3687;47.648;8.204;2022-07-29T03:21:15;3.47;;;2.57;;
7291;SDS011;3687;47.648;8.204;2022-07-29T03:23:44;3.03;;;2.80;;
7291;SDS011;3687;47.648;8.204;2022-07-29T03:26:10;4.77;;;2.63;;
7291;SDS011;3687;47.648;8.204;2022-07-29T03:28:37;3.83;;;2.70;;
7291;SDS011;3687;47.648;8.204;2022-07-29T03:31:02;2.93;;;2.70;;
7291;SDS011;3687;47.648;8.204;2022-07-29T03:33:28;3.47;;;3.17;;
7291;SDS011;3687;47.648;8.204;2022-07-29T03:35:55;2.80;;;2.50;;
7291;SDS011;3687;47.648;8.204;2022-07-29T03:38:21;2.73;;;2.53;;
7291;SDS011;3687;47.648;8.204;2022-07-29T03:40:51;4.27;;;3.13;;
7291;SDS011;3687;47.648;8.204;2022-07-29T03:43:20;3.73;;;3.10;;
7291;SDS011;3687;47.648;8.204;2022-07-29T03:45:49;5.03;;;3.17;;
7291;SDS011;3687;47.648;8.204;2022-07-29T03:48:19;2.70;;;2.50;;
7291;SDS011;3687;47.648;8.204;2022-07-29T03:50:46;3.00;;;2.80;;
7291;SDS011;3687;47.648;8.204;2022-07-29T03:53:13;3.03;;;2.67;;
7291;SDS011;3687;47.648;8.204;2022-07-29T03:55:43;2.97;;;2.77;;
7291;SDS011;3687;47.648;8.204;2022-07-29T03:58:12;4.57;;;3.03;;
7291;SDS011;3687;47.648;8.204;2022-07-29T04:00:38;3.30;;;3.00;;
7291;SDS011;3687;47.648;8.204;2022-07-29T04:03:05;2.60;;;2.40;;
7291;SDS011;3687;47.648;8.204;2022-07-29T04:05:31;4.07;;;2.77;;
7291;SDS011;3687;47.648;8.204;2022-07-29T04:07:57;3.00;;;2.70;;
7291;SDS011;3687;47.648;8.204;2022-07-29T04:10:23;3.37;;;2.43;;
7291;SDS011;3687;47.648;8.204;2022-07-29T04:12:49;3.77;;;2.80;;
7291;SDS011;3687;47.648;8.204;2022-07-29T04:15:14;2.90;;;2.67;;
7291;SDS011;3687;47.648;8.204;2022-07-29T04:17:40;3.07;;;2.60;;
7291;SDS011;3687;47.648;8.204;2022-07-29T04:20:06;3.80;;;2.80;;
7291;SDS011;3687;47.648;8.204;2022-07-29T04:22:32;3.10;;;2.80;;
7291;SDS011;3687;47.648;8.204;2022-07-29T04:24:59;2.83;;;2.60;;
7291;SDS011;3687;47.648;8.204;2022-07-29T04:27:24;2.70;;;2.50;;
7291;SDS011;3687;47.648;8.204;2022-07-29T04:29:50;3.37;;;2.90;;
7291;SDS011;3687;47.648;8.204;2022-07-29T04:32:16;2.60;;;2.40;;
7291;SDS011;3687;47.648;8.204;2022-07-29T04:34:41;4.03;;;3.00;;
7291;SDS011;3687;47.648;8.204;2022-07-29T04:37:07;3.63;;;2.73;;
7291;SDS011;3687;47.648;8.204;2022-07-29T04:39:33;4.70;;;2.83;;
7291;SDS011;3687;47.648;8.204;2022-07-29T04:41:59;3.07;;;2.83;;
7291;SDS011;3687;47.648;8.204;2022-07-29T04:44:25;3.33;;;2.70;;
7291;SDS011;3687;47.648;8.204;2022-07-29T04:46:51;4.30;;;3.20;;
7291;SDS011;3687;47.648;8.204;2022-07-29T04:49:16;3.03;;;2.73;;
7291;SDS011;3687;47.648;8.204;2022-07-29T04:51:42;3.07;;;2.87;;
7291;SDS011;3687;47.648;8.204;2022-07-29T04:54:07;4.30;;;2.90;;
7291;SDS011;3687;47.648;8.204;2022-07-29T04:56:33;3.40;;;3.13;;
7291;SDS011;3687;47.648;8.204;2022-07-29T04:58:58;5.27;;;2.77;;
7291;SDS011;3687;47.648;8.204;2022-07-29T05:01:24;3.30;;;3.00;;
7291;SDS011;3687;47.648;8.204;2022-07-29T05:03:49;5.50;;;2.93;;
7291;SDS011;3687;47.648;8.204;2022-07-29T05:06:15;4.03;;;3.20;;
7291;SDS011;3687;47.648;8.204;2022-07-29T05:08:41;3.27;;;3.00;;
7291;SDS011;3687;47.648;8.204;2022-07-29T05:11:06;2.77;;;2.57;;
7291;SDS011;3687;47.648;8.204;2022-07-29T05:13:32;3.13;;;2.83;;
7291;SDS011;3687;47.648;8.204;2022-07-29T05:15:58;3.93;;;2.90;;
7291;SDS011;3687;47.648;8.204;2022-07-29T05:18:24;3.07;;;2.77;;
7291;SDS011;3687;47.648;8.204;2022-07-29T05:20:50;4.47;;;2.40;;
7291;SDS011;3687;47.648;8.204;2022-07-29T05:23:17;4.60;;;2.90;;
7291;SDS011;3687;47.648;8.204;2022-07-29T05:25:42;3.70;;;2.87;;
7291;SDS011;3687;47.648;8.204;2022-07-29T05:28:08;4.13;;;2.87;;
7291;SDS011;3687;47.648;8.204;2022-07-29T05:30:34;5.17;;;3.27;;
7291;SDS011;3687;47.648;8.204;2022-07-29T05:32:59;3.17;;;2.87;;
7291;SDS011;3687;47.648;8.204;2022-07-29T05:35:25;3.70;;;3.00;;
7291;SDS011;3687;47.648;8.204;2022-07-29T05:37:50;4.00;;;3.20;;
7291;SDS011;3687;47.648;8.204;2022-07-29T05:40:16;3.30;;;3.00;;
7291;SDS011;3687;47.648;8.204;2022-07-29T05:42:41;3.70;;;3.20;;
7291;SDS011;3687;47.648;8.204;2022-07-29T05:45:07;3.43;;;3.13;;
7291;SDS011;3687;47.648;8.204;2022-07-29T05:47:33;5.03;;;3.47;;
7291;SDS011;3687;47.648;8.204;2022-07-29T05:49:59;3.30;;;2.90;;
7291;SDS011;3687;47.648;8.204;2022-07-29T05:52:24;3.43;;;3.13;;
7291;SDS011;3687;47.648;8.204;2022-07-29T05:54:50;6.17;;;3.17;;
7291;SDS011;3687;47.648;8.204;2022-07-29T05:57:20;4.63;;;3.17;;
7291;SDS011;3687;47.648;8.204;2022-07-29T05:59:47;5.37;;;3.23;;
7291;SDS011;3687;47.648;8.204;2022-07-29T06:02:13;5.00;;;3.37;;
7291;SDS011;3687;47.648;8.204;2022-07-29T06:04:39;3.33;;;3.03;;
7291;SDS011;3687;47.648;8.204;2022-07-29T06:07:04;3.33;;;2.70;;
7291;SDS011;3687;47.648;8.204;2022-07-29T06:09:31;5.30;;;3.50;;
7291;SDS011;3687;47.648;8.204;2022-07-29T06:11:56;4.73;;;3.17;;
7291;SDS011;3687;47.648;8.204;2022-07-29T06:14:23;4.60;;;3.10;;
7291;SDS011;3687;47.648;8.204;2022-07-29T06:16:48;3.87;;;3.40;;
7291;SDS011;3687;47.648;8.204;2022-07-29T06:19:14;3.30;;;3.00;;
7291;SDS011;3687;47.648;8.204;2022-07-29T06:21:43;3.17;;;2.87;;
7291;SDS011;3687;47.648;8.204;2022-07-29T06:24:10;3.43;;;3.00;;
7291;SDS011;3687;47.648;8.204;2022-07-29T06:26:37;3.50;;;3.00;;
7291;SDS011;3687;47.648;8.204;2022-07-29T06:29:03;3.43;;;2.87;;
7291;SDS011;3687;47.648;8.204;2022-07-29T06:31:29;4.90;;;3.13;;
7291;SDS011;3687;47.648;8.204;2022-07-29T06:33:54;3.33;;;3.03;;
7291;SDS011;3687;47.648;8.204;2022-07-29T06:36:20;3.67;;;3.37;;
7291;SDS011;3687;47.648;8.204;2022-07-29T06:38:45;4.73;;;3.30;;
7291;SDS011;3687;47.648;8.204;2022-07-29T06:41:11;4.40;;;3.57;;
7291;SDS011;3687;47.648;8.204;2022-07-29T06:43:41;4.40;;;3.13;;
7291;SDS011;3687;47.648;8.204;2022-07-29T06:46:09;4.73;;;3.70;;
7291;SDS011;3687;47.648;8.204;2022-07-29T06:48:38;8.53;;;3.60;;
7291;SDS011;3687;47.648;8.204;2022-07-29T06:51:04;5.70;;;3.77;;
7291;SDS011;3687;47.648;8.204;2022-07-29T06:53:31;4.60;;;4.20;;
7291;SDS011;3687;47.648;8.204;2022-07-29T06:55:58;6.97;;;3.83;;
7291;SDS011;3687;47.648;8.204;2022-07-29T06:58:25;5.07;;;4.57;;
7291;SDS011;3687;47.648;8.204;2022-07-29T07:00:51;4.80;;;4.00;;
7291;SDS011;3687;47.648;8.204;2022-07-29T07:03:17;4.13;;;3.83;;
7291;SDS011;3687;47.648;8.204;2022-07-29T07:05:43;5.63;;;4.03;;
7291;SDS011;3687;47.648;8.204;2022-07-29T07:08:10;5.50;;;4.00;;
7291;SDS011;3687;47.648;8.204;2022-07-29T07:10:36;5.73;;;3.73;;
7291;SDS011;3687;47.648;8.204;2022-07-29T07:13:02;4.40;;;4.10;;
7291;SDS011;3687;47.648;8.204;2022-07-29T07:15:29;4.30;;;3.90;;
7291;SDS011;3687;47.648;8.204;2022-07-29T07:17:55;5.93;;;4.27;;
7291;SDS011;3687;47.648;8.204;2022-07-29T07:20:22;4.13;;;3.63;;
7291;SDS011;3687;47.648;8.204;2022-07-29T07:22:48;5.70;;;3.90;;
7291;SDS011;3687;47.648;8.204;2022-07-29T07:25:13;4.60;;;4.10;;
7291;SDS011;3687;47.648;8.204;2022-07-29T07:27:39;3.27;;;3.07;;
7291;SDS011;3687;47.648;8.204;2022-07-29T07:30:05;5.93;;;3.70;;
7291;SDS011;3687;47.648;8.204;2022-07-29T07:32:32;4.20;;;3.87;;
7291;SDS011;3687;47.648;8.204;2022-07-29T07:34:58;4.80;;;3.73;;
7291;SDS011;3687;47.648;8.204;2022-07-29T07:37:24;3.43;;;3.10;;
7291;SDS011;3687;47.648;8.204;2022-07-29T07:39:51;4.17;;;3.47;;
7291;SDS011;3687;47.648;8.204;2022-07-29T07:42:17;11.80;;;3.47;;
7291;SDS011;3687;47.648;8.204;2022-07-29T07:44:43;5.83;;;3.37;;
7291;SDS011;3687;47.648;8.204;2022-07-29T07:47:10;5.20;;;3.70;;
7291;SDS011;3687;47.648;8.204;2022-07-29T07:49:36;3.77;;;3.30;;
7291;SDS011;3687;47.648;8.204;2022-07-29T07:52:02;4.50;;;3.50;;
7291;SDS011;3687;47.648;8.204;2022-07-29T07:54:28;3.83;;;3.53;;
7291;SDS011;3687;47.648;8.204;2022-07-29T07:56:53;4.20;;;3.80;;
7291;SDS011;3687;47.648;8.204;2022-07-29T08:02:11;3.93;;;3.60;;
7291;SDS011;3687;47.648;8.204;2022-07-29T08:04:36;3.87;;;3.57;;
7291;SDS011;3687;47.648;8.204;2022-07-29T08:07:05;7.13;;;3.97;;
7291;SDS011;3687;47.648;8.204;2022-07-29T08:09:31;4.77;;;3.53;;
7291;SDS011;3687;47.648;8.204;2022-07-29T08:11:57;4.50;;;3.87;;
7291;SDS011;3687;47.648;8.204;2022-07-29T08:14:24;4.70;;;4.30;;
7291;SDS011;3687;47.648;8.204;2022-07-29T08:16:50;7.67;;;4.20;;
7291;SDS011;3687;47.648;8.204;2022-07-29T08:19:16;4.83;;;4.33;;
7291;SDS011;3687;47.648;8.204;2022-07-29T08:21:41;5.57;;;4.27;;
7291;SDS011;3687;47.648;8.204;2022-07-29T08:24:07;5.27;;;4.30;;
7291;SDS011;3687;47.648;8.204;2022-07-29T08:26:51;5.67;;;4.67;;
7291;SDS011;3687;47.648;8.204;2022-07-29T08:29:17;4.83;;;4.33;;
7291;SDS011;3687;47.648;8.204;2022-07-29T08:31:42;5.63;;;4.97;;
7291;SDS011;3687;47.648;8.204;2022-07-29T08:34:08;6.80;;;4.77;;
7291;SDS011;3687;47.648;8.204;2022-07-29T08:36:34;5.43;;;4.93;;
7291;SDS011;3687;47.648;8.204;2022-07-29T08:39:00;7.33;;;4.77;;
7291;SDS011;3687;47.648;8.204;2022-07-29T08:41:26;6.13;;;4.80;;
7291;SDS011;3687;47.648;8.204;2022-07-29T08:43:52;8.37;;;4.57;;
7291;SDS011;3687;47.648;8.204;2022-07-29T08:46:18;5.00;;;4.27;;
7291;SDS011;3687;47.648;8.204;2022-07-29T08:48:45;5.63;;;4.63;;
7291;SDS011;3687;47.648;8.204;2022-07-29T08:51:16;5.63;;;4.50;;
7291;SDS011;3687;47.648;8.204;2022-07-29T08:53:44;5.37;;;4.60;;
7291;SDS011;3687;47.648;8.204;2022-07-29T08:56:13;7.20;;;5.97;;
7291;SDS011;3687;47.648;8.204;2022-07-29T08:58:41;9.80;;;7.07;;
7291;SDS011;3687;47.648;8.204;2022-07-29T09:01:07;11.77;;;6.20;;
7291;SDS011;3687;47.648;8.204;2022-07-29T09:03:36;5.87;;;4.80;;
7291;SDS011;3687;47.648;8.204;2022-07-29T09:06:03;5.73;;;4.87;;
7291;SDS011;3687;47.648;8.204;2022-07-29T09:08:30;6.20;;;4.80;;
7291;SDS011;3687;47.648;8.204;2022-07-29T09:10:57;5.33;;;4.83;;
7291;SDS011;3687;47.648;8.204;2022-07-29T09:13:25;8.00;;;4.47;;
7291;SDS011;3687;47.648;8.204;2022-07-29T09:15:50;4.90;;;4.40;;
7291;SDS011;3687;47.648;8.204;2022-07-29T09:21:13;6.53;;;5.20;;
7291;SDS011;3687;47.648;8.204;2022-07-29T09:24:11;5.20;;;4.80;;
7291;SDS011;3687;47.648;8.204;2022-07-29T09:26:39;5.90;;;4.63;;
7291;SDS011;3687;47.648;8.204;2022-07-29T09:29:09;5.13;;;4.33;;
7291;SDS011;3687;47.648;8.204;2022-07-29T09:31:38;5.23;;;4.70;;
7291;SDS011;3687;47.648;8.204;2022-07-29T09:34:05;6.70;;;4.77;;
7291;SDS011;3687;47.648;8.204;2022-07-29T09:36:38;4.67;;;4.27;;
7291;SDS011;3687;47.648;8.204;2022-07-29T09:39:05;5.33;;;4.23;;
7291;SDS011;3687;47.648;8.204;2022-07-29T09:41:30;6.80;;;5.17;;
7291;SDS011;3687;47.648;8.204;2022-07-29T09:44:18;5.40;;;4.50;;
7291;SDS011;3687;47.648;8.204;2022-07-29T09:47:00;4.60;;;4.20;;
7291;SDS011;3687;47.648;8.204;2022-07-29T09:49:31;5.33;;;4.83;;
7291;SDS011;3687;47.648;8.204;2022-07-29T09:52:20;4.40;;;4.10;;
7291;SDS011;3687;47.648;8.204;2022-07-29T09:54:46;4.63;;;3.83;;
7291;SDS011;3687;47.648;8.204;2022-07-29T09:57:22;4.53;;;3.77;;
7291;SDS011;3687;47.648;8.204;2022-07-29T10:00:06;5.33;;;4.20;;
7291;SDS011;3687;47.648;8.204;2022-07-29T10:02:37;4.57;;;4.17;;
7291;SDS011;3687;47.648;8.204;2022-07-29T10:05:05;6.10;;;4.00;;
7291;SDS011;3687;47.648;8.204;2022-07-29T10:12:50;5.37;;;4.30;;
7291;SDS011;3687;47.648;8.204;2022-07-29T10:15:19;6.50;;;4.73;;
7291;SDS011;3687;47.648;8.204;2022-07-29T10:17:47;6.07;;;4.17;;
7291;SDS011;3687;47.648;8.204;2022-07-29T10:20:14;5.00;;;4.20;;
7291;SDS011;3687;47.648;8.204;2022-07-29T10:22:40;5.77;;;4.70;;
7291;SDS011;3687;47.648;8.204;2022-07-29T10:25:07;5.27;;;4.80;;
7291;SDS011;3687;47.648;8.204;2022-07-29T10:27:34;5.63;;;4.50;;
7291;SDS011;3687;47.648;8.204;2022-07-29T10:30:00;6.50;;;4.13;;
7291;SDS011;3687;47.648;8.204;2022-07-29T10:32:33;6.87;;;4.70;;
7291;SDS011;3687;47.648;8.204;2022-07-29T10:40:44;6.43;;;4.43;;
7291;SDS011;3687;47.648;8.204;2022-07-29T10:43:42;7.07;;;3.97;;
7291;SDS011;3687;47.648;8.204;2022-07-29T10:46:10;4.63;;;3.90;;
7291;SDS011;3687;47.648;8.204;2022-07-29T10:59:46;4.10;;;3.80;;
7291;SDS011;3687;47.648;8.204;2022-07-29T11:02:40;5.70;;;4.13;;
7291;SDS011;3687;47.648;8.204;2022-07-29T11:05:11;4.13;;;3.50;;
7291;SDS011;3687;47.648;8.204;2022-07-29T11:07:38;4.23;;;3.63;;
7291;SDS011;3687;47.648;8.204;2022-07-29T11:10:24;3.70;;;3.10;;
7291;SDS011;3687;47.648;8.204;2022-07-29T11:12:50;3.60;;;3.23;;
7291;SDS011;3687;47.648;8.204;2022-07-29T11:15:20;6.50;;;3.07;;
7291;SDS011;3687;47.648;8.204;2022-07-29T11:23:01;2.17;;;2.00;;
7291;SDS011;3687;47.648;8.204;2022-07-29T11:31:34;3.30;;;2.03;;
7291;SDS011;3687;47.648;8.204;2022-07-29T11:44:55;3.27;;;1.97;;
7291;SDS011;3687;47.648;8.204;2022-07-29T11:47:26;2.00;;;1.90;;
7291;SDS011;3687;47.648;8.204;2022-07-29T11:49:54;2.50;;;1.50;;
7291;SDS011;3687;47.648;8.204;2022-07-29T11:52:22;2.33;;;1.67;;
7291;SDS011;3687;47.648;8.204;2022-07-29T11:54:48;2.50;;;1.87;;
7291;SDS011;3687;47.648;8.204;2022-07-29T11:57:16;4.30;;;1.80;;
7291;SDS011;3687;47.648;8.204;2022-07-29T11:59:43;3.00;;;2.10;;
7291;SDS011;3687;47.648;8.204;2022-07-29T12:02:10;2.53;;;1.90;;
7291;SDS011;3687;47.648;8.204;2022-07-29T12:04:52;3.27;;;1.80;;
7291;SDS011;3687;47.648;8.204;2022-07-29T12:07:29;2.73;;;1.90;;
7291;SDS011;3687;47.648;8.204;2022-07-29T12:09:59;2.70;;;1.80;;
7291;SDS011;3687;47.648;8.204;2022-07-29T12:12:26;2.50;;;1.80;;
7291;SDS011;3687;47.648;8.204;2022-07-29T12:14:52;2.00;;;1.70;;
7291;SDS011;3687;47.648;8.204;2022-07-29T12:17:26;2.67;;;1.80;;
7291;SDS011;3687;47.648;8.204;2022-07-29T12:19:54;5.50;;;2.03;;
7291;SDS011;3687;47.648;8.204;2022-07-29T12:22:27;3.80;;;1.90;;
7291;SDS011;3687;47.648;8.204;2022-07-29T12:25:05;1.83;;;1.73;;
7291;SDS011;3687;47.648;8.204;2022-07-29T12:27:32;3.00;;;2.47;;
7291;SDS011;3687;47.648;8.204;2022-07-29T12:30:03;4.70;;;2.20;;
7291;SDS011;3687;47.648;8.204;2022-07-29T12:32:34;2.30;;;2.10;;
7291;SDS011;3687;47.648;8.204;2022-07-29T12:35:08;2.50;;;2.20;;
7291;SDS011;3687;47.648;8.204;2022-07-29T12:37:37;3.80;;;2.27;;
7291;SDS011;3687;47.648;8.204;2022-07-29T12:40:04;2.80;;;2.20;;
7291;SDS011;3687;47.648;8.204;2022-07-29T12:42:32;3.27;;;2.73;;
7291;SDS011;3687;47.648;8.204;2022-07-29T12:44:58;3.40;;;2.53;;
7291;SDS011;3687;47.648;8.204;2022-07-29T12:47:24;5.27;;;2.53;;
7291;SDS011;3687;47.648;8.204;2022-07-29T12:49:50;3.13;;;2.30;;
7291;SDS011;3687;47.648;8.204;2022-07-29T12:52:36;2.50;;;2.30;;
7291;SDS011;3687;47.648;8.204;2022-07-29T12:55:02;4.17;;;2.50;;
7291;SDS011;3687;47.648;8.204;2022-07-29T12:57:28;4.63;;;2.30;;
7291;SDS011;3687;47.648;8.204;2022-07-29T13:00:07;2.87;;;2.57;;
7291;SDS011;3687;47.648;8.204;2022-07-29T13:02:36;2.23;;;2.10;;
7291;SDS011;3687;47.648;8.204;2022-07-29T13:05:02;2.30;;;1.90;;
7291;SDS011;3687;47.648;8.204;2022-07-29T13:07:30;2.10;;;1.90;;
7291;SDS011;3687;47.648;8.204;2022-07-29T13:10:18;3.40;;;2.13;;
7291;SDS011;3687;47.648;8.204;2022-07-29T13:15:34;5.37;;;2.13;;
7291;SDS011;3687;47.648;8.204;2022-07-29T13:18:00;2.53;;;1.80;;
7291;SDS011;3687;47.648;8.204;2022-07-29T13:20:27;6.13;;;2.27;;
7291;SDS011;3687;47.648;8.204;2022-07-29T13:22:57;3.10;;;2.30;;
7291;SDS011;3687;47.648;8.204;2022-07-29T13:25:25;2.33;;;1.70;;
7291;SDS011;3687;47.648;8.204;2022-07-29T13:27:52;3.50;;;1.90;;
7291;SDS011;3687;47.648;8.204;2022-07-29T13:30:19;2.70;;;2.10;;
7291;SDS011;3687;47.648;8.204;2022-07-29T13:32:46;2.03;;;1.80;;
7291;SDS011;3687;47.648;8.204;2022-07-29T13:35:12;2.20;;;2.00;;
7291;SDS011;3687;47.648;8.204;2022-07-29T13:37:38;3.73;;;1.90;;
7291;SDS011;3687;47.648;8.204;2022-07-29T13:40:05;1.93;;;1.83;;
7291;SDS011;3687;47.648;8.204;2022-07-29T13:42:34;5.17;;;2.00;;
7291;SDS011;3687;47.648;8.204;2022-07-29T13:45:00;3.63;;;2.07;;
7291;SDS011;3687;47.648;8.204;2022-07-29T13:47:26;3.07;;;2.00;;
7291;SDS011;3687;47.648;8.204;2022-07-29T13:49:52;3.63;;;2.00;;
7291;SDS011;3687;47.648;8.204;2022-07-29T13:52:18;2.43;;;2.00;;
7291;SDS011;3687;47.648;8.204;2022-07-29T13:54:44;2.80;;;1.90;;
7291;SDS011;3687;47.648;8.204;2022-07-29T13:57:10;2.43;;;1.90;;
7291;SDS011;3687;47.648;8.204;2022-07-29T13:59:36;2.53;;;1.90;;
7291;SDS011;3687;47.648;8.204;2022-07-29T14:02:02;1.90;;;1.80;;
7291;SDS011;3687;47.648;8.204;2022-07-29T14:04:28;3.53;;;1.70;;
7291;SDS011;3687;47.648;8.204;2022-07-29T14:06:53;2.47;;;1.80;;
7291;SDS011;3687;47.648;8.204;2022-07-29T14:09:19;1.80;;;1.70;;
7291;SDS011;3687;47.648;8.204;2022-07-29T14:11:45;2.17;;;1.70;;
7291;SDS011;3687;47.648;8.204;2022-07-29T14:14:10;4.03;;;1.90;;
7291;SDS011;3687;47.648;8.204;2022-07-29T14:16:36;1.87;;;1.77;;
7291;SDS011;3687;47.648;8.204;2022-07-29T14:19:02;2.60;;;1.60;;
7291;SDS011;3687;47.648;8.204;2022-07-29T14:21:28;1.90;;;1.80;;
7291;SDS011;3687;47.648;8.204;2022-07-29T14:23:53;2.87;;;1.77;;
7291;SDS011;3687;47.648;8.204;2022-07-29T14:26:19;2.40;;;1.77;;
7291;SDS011;3687;47.648;8.204;2022-07-29T14:28:46;3.30;;;2.03;;
7291;SDS011;3687;47.648;8.204;2022-07-29T14:31:12;2.17;;;1.70;;
7291;SDS011;3687;47.648;8.204;2022-07-29T14:33:37;1.67;;;1.57;;
7291;SDS011;3687;47.648;8.204;2022-07-29T14:36:03;1.97;;;1.83;;
7291;SDS011;3687;47.648;8.204;2022-07-29T14:38:29;1.40;;;1.30;;
7291;SDS011;3687;47.648;8.204;2022-07-29T14:40:54;4.30;;;1.70;;
7291;SDS011;3687;47.648;8.204;2022-07-29T14:43:20;3.93;;;1.90;;
7291;SDS011;3687;47.648;8.204;2022-07-29T14:45:45;1.67;;;1.57;;
7291;SDS011;3687;47.648;8.204;2022-07-29T14:48:11;4.20;;;1.80;;
7291;SDS011;3687;47.648;8.204;2022-07-29T14:50:37;3.60;;;1.83;;
7291;SDS011;3687;47.648;8.204;2022-07-29T14:53:03;2.47;;;1.90;;
7291;SDS011;3687;47.648;8.204;2022-07-29T14:55:28;1.97;;;1.77;;
7291;SDS011;3687;47.648;8.204;2022-07-29T14:57:54;2.17;;;1.90;;
7291;SDS011;3687;47.648;8.204;2022-07-29T15:00:20;2.90;;;2.27;;
7291;SDS011;3687;47.648;8.204;2022-07-29T15:02:46;2.70;;;2.27;;
7291;SDS011;3687;47.648;8.204;2022-07-29T15:05:12;2.97;;;1.90;;
7291;SDS011;3687;47.648;8.204;2022-07-29T15:07:38;2.07;;;1.90;;
7291;SDS011;3687;47.648;8.204;2022-07-29T15:10:04;3.03;;;1.83;;
7291;SDS011;3687;47.648;8.204;2022-07-29T15:12:30;2.83;;;1.90;;
7291;SDS011;3687;47.648;8.204;2022-07-29T15:14:56;3.87;;;2.00;;
7291;SDS011;3687;47.648;8.204;2022-07-29T15:17:21;2.20;;;2.00;;
7291;SDS011;3687;47.648;8.204;2022-07-29T15:19:47;2.73;;;2.00;;
7291;SDS011;3687;47.648;8.204;2022-07-29T15:22:13;4.47;;;2.00;;
7291;SDS011;3687;47.648;8.204;2022-07-29T15:24:38;3.97;;;2.03;;
7291;SDS011;3687;47.648;8.204;2022-07-29T15:27:04;3.43;;;2.03;;
7291;SDS011;3687;47.648;8.204;2022-07-29T15:29:29;2.40;;;2.00;;
7291;SDS011;3687;47.648;8.204;2022-07-29T15:31:55;2.70;;;1.93;;
7291;SDS011;3687;47.648;8.204;2022-07-29T15:34:20;4.33;;;2.23;;
7291;SDS011;3687;47.648;8.204;2022-07-29T15:36:48;2.27;;;1.70;;
7291;SDS011;3687;47.648;8.204;2022-07-29T15:39:15;2.17;;;1.73;;
7291;SDS011;3687;47.648;8.204;2022-07-29T15:41:40;6.13;;;1.90;;
7291;SDS011;3687;47.648;8.204;2022-07-29T15:44:06;3.07;;;2.30;;
7291;SDS011;3687;47.648;8.204;2022-07-29T15:46:31;4.70;;;1.93;;
7291;SDS011;3687;47.648;8.204;2022-07-29T15:49:16;6.93;;;2.23;;
7291;SDS011;3687;47.648;8.204;2022-07-29T15:51:41;3.83;;;1.97;;
7291;SDS011;3687;47.648;8.204;2022-07-29T15:54:07;2.03;;;1.70;;
7291;SDS011;3687;47.648;8.204;2022-07-29T15:56:32;5.80;;;2.10;;
7291;SDS011;3687;47.648;8.204;2022-07-29T15:58:58;2.40;;;1.50;;
7291;SDS011;3687;47.648;8.204;2022-07-29T16:01:24;4.90;;;2.10;;
7291;SDS011;3687;47.648;8.204;2022-07-29T16:03:49;3.67;;;1.93;;
7291;SDS011;3687;47.648;8.204;2022-07-29T16:06:15;4.03;;;2.13;;
7291;SDS011;3687;47.648;8.204;2022-07-29T16:08:41;4.03;;;1.90;;
7291;SDS011;3687;47.648;8.204;2022-07-29T16:11:07;1.90;;;1.80;;
7291;SDS011;3687;47.648;8.204;2022-07-29T16:13:32;3.43;;;2.10;;
7291;SDS011;3687;47.648;8.204;2022-07-29T16:15:58;2.90;;;1.87;;
7291;SDS011;3687;47.648;8.204;2022-07-29T16:18:23;3.43;;;2.37;;
7291;SDS011;3687;47.648;8.204;2022-07-29T16:20:49;3.03;;;1.97;;